sensor_id;sensor_type;location;lat;lon;timestamp;temperature;humidity
69418;DHT22;56610;48.872;2.400;2023-05-07T00:02:24;18.90;99.90
69418;DHT22;56610;48.872;2.400;2023-05-07T00:04:50;18.90;99.90
69418;DHT22;56610;48.872;2.400;2023-05-07T00:07:17;18.90;99.90
69418;DHT22;56610;48.872;2.400;2023-05-07T00:09:43;18.90;99.90
69418;DHT22;56610;48.872;2.400;2023-05-07T00:12:08;18.90;99.90
69418;DHT22;56610;48.872;2.400;2023-05-07T00:14:34;19.00;99.90
69418;DHT22;56610;48.872;2.400;2023-05-07T00:17:00;19.00;99.90
69418;DHT22;56610;48.872;2.400;2023-05-07T00:19:25;19.10;99.90
69418;DHT22;56610;48.872;2.400;2023-05-07T00:21:51;19.10;99.90
69418;DHT22;56610;48.872;2.400;2023-05-07T00:24:18;19.10;99.90
69418;DHT22;56610;48.872;2.400;2023-05-07T00:26:44;19.00;99.90
69418;DHT22;56610;48.872;2.400;2023-05-07T00:29:10;19.10;99.90
69418;DHT22;56610;48.872;2.400;2023-05-07T00:31:35;19.10;99.90
69418;DHT22;56610;48.872;2.400;2023-05-07T00:34:01;19.10;99.90
69418;DHT22;56610;48.872;2.400;2023-05-07T00:36:27;19.00;99.90
69418;DHT22;56610;48.872;2.400;2023-05-07T00:38:54;19.00;99.90
69418;DHT22;56610;48.872;2.400;2023-05-07T00:41:20;18.90;99.90
69418;DHT22;56610;48.872;2.400;2023-05-07T00:43:46;18.80;99.90
69418;DHT22;56610;48.872;2.400;2023-05-07T00:46:13;19.00;99.90
69418;DHT22;56610;48.872;2.400;2023-05-07T00:48:39;19.20;99.90
69418;DHT22;56610;48.872;2.400;2023-05-07T00:51:04;19.30;99.90
69418;DHT22;56610;48.872;2.400;2023-05-07T00:53:30;19.40;99.90
69418;DHT22;56610;48.872;2.400;2023-05-07T00:55:56;19.40;99.90
69418;DHT22;56610;48.872;2.400;2023-05-07T00:58:22;19.40;99.90
69418;DHT22;56610;48.872;2.400;2023-05-07T01:00:47;19.30;99.90
69418;DHT22;56610;48.872;2.400;2023-05-07T01:03:33;19.30;99.90
69418;DHT22;56610;48.872;2.400;2023-05-07T01:05:59;19.20;99.90
69418;DHT22;56610;48.872;2.400;2023-05-07T01:08:26;19.20;99.90
69418;DHT22;56610;48.872;2.400;2023-05-07T01:10:56;19.20;99.90
69418;DHT22;56610;48.872;2.400;2023-05-07T01:13:23;19.30;99.90
69418;DHT22;56610;48.872;2.400;2023-05-07T01:15:49;19.30;99.90
69418;DHT22;56610;48.872;2.400;2023-05-07T01:18:15;19.40;99.90
69418;DHT22;56610;48.872;2.400;2023-05-07T01:20:41;19.40;99.90
69418;DHT22;56610;48.872;2.400;2023-05-07T01:23:07;19.40;99.90
69418;DHT22;56610;48.872;2.400;2023-05-07T01:25:33;19.40;99.90
69418;DHT22;56610;48.872;2.400;2023-05-07T01:27:58;19.40;99.90
69418;DHT22;56610;48.872;2.400;2023-05-07T01:30:27;19.30;99.90
69418;DHT22;56610;48.872;2.400;2023-05-07T01:33:06;19.30;99.90
69418;DHT22;56610;48.872;2.400;2023-05-07T01:35:40;19.30;99.90
69418;DHT22;56610;48.872;2.400;2023-05-07T01:38:07;19.20;99.90
69418;DHT22;56610;48.872;2.400;2023-05-07T01:40:34;19.30;99.90
69418;DHT22;56610;48.872;2.400;2023-05-07T01:43:01;19.30;99.90
69418;DHT22;56610;48.872;2.400;2023-05-07T01:45:28;19.30;99.90
69418;DHT22;56610;48.872;2.400;2023-05-07T01:47:54;19.30;99.90
69418;DHT22;56610;48.872;2.400;2023-05-07T01:50:20;19.20;99.90
69418;DHT22;56610;48.872;2.400;2023-05-07T01:52:47;19.30;99.90
69418;DHT22;56610;48.872;2.400;2023-05-07T01:55:14;19.20;99.90
69418;DHT22;56610;48.872;2.400;2023-05-07T01:57:40;19.00;99.90
69418;DHT22;56610;48.872;2.400;2023-05-07T02:00:06;18.90;99.90
69418;DHT22;56610;48.872;2.400;2023-05-07T02:02:33;18.70;99.90
69418;DHT22;56610;48.872;2.400;2023-05-07T02:04:59;18.70;99.90
69418;DHT22;56610;48.872;2.400;2023-05-07T02:07:26;18.70;99.90
69418;DHT22;56610;48.872;2.400;2023-05-07T02:09:52;18.70;99.90
69418;DHT22;56610;48.872;2.400;2023-05-07T02:12:17;19.00;99.90
69418;DHT22;56610;48.872;2.400;2023-05-07T02:14:43;19.10;99.90
69418;DHT22;56610;48.872;2.400;2023-05-07T02:17:08;19.20;99.90
69418;DHT22;56610;48.872;2.400;2023-05-07T02:19:34;19.30;99.90
69418;DHT22;56610;48.872;2.400;2023-05-07T02:22:00;19.20;99.90
69418;DHT22;56610;48.872;2.400;2023-05-07T02:24:26;19.10;99.90
69418;DHT22;56610;48.872;2.400;2023-05-07T02:26:51;19.10;99.90
69418;DHT22;56610;48.872;2.400;2023-05-07T02:29:17;19.10;99.90
69418;DHT22;56610;48.872;2.400;2023-05-07T02:31:42;18.90;99.90
69418;DHT22;56610;48.872;2.400;2023-05-07T02:34:08;18.80;99.90
69418;DHT22;56610;48.872;2.400;2023-05-07T02:36:33;18.60;99.90
69418;DHT22;56610;48.872;2.400;2023-05-07T02:38:59;18.70;99.90
69418;DHT22;56610;48.872;2.400;2023-05-07T02:41:24;18.70;99.90
69418;DHT22;56610;48.872;2.400;2023-05-07T02:43:50;18.80;99.90
69418;DHT22;56610;48.872;2.400;2023-05-07T02:46:16;18.90;99.90
69418;DHT22;56610;48.872;2.400;2023-05-07T02:48:41;18.90;99.90
69418;DHT22;56610;48.872;2.400;2023-05-07T02:51:07;18.90;99.90
69418;DHT22;56610;48.872;2.400;2023-05-07T02:53:32;18.90;99.90
69418;DHT22;56610;48.872;2.400;2023-05-07T02:55:59;18.90;99.90
69418;DHT22;56610;48.872;2.400;2023-05-07T02:58:25;18.90;99.90
69418;DHT22;56610;48.872;2.400;2023-05-07T03:00:51;18.80;99.90
69418;DHT22;56610;48.872;2.400;2023-05-07T03:03:17;18.80;99.90
69418;DHT22;56610;48.872;2.400;2023-05-07T03:05:43;18.80;99.90
69418;DHT22;56610;48.872;2.400;2023-05-07T03:08:09;18.50;99.90
69418;DHT22;56610;48.872;2.400;2023-05-07T03:10:36;18.40;99.90
69418;DHT22;56610;48.872;2.400;2023-05-07T03:13:02;18.30;99.90
69418;DHT22;56610;48.872;2.400;2023-05-07T03:15:27;18.20;99.90
69418;DHT22;56610;48.872;2.400;2023-05-07T03:17:54;18.10;99.90
69418;DHT22;56610;48.872;2.400;2023-05-07T03:20:20;18.00;99.90
69418;DHT22;56610;48.872;2.400;2023-05-07T03:22:45;18.00;99.90
69418;DHT22;56610;48.872;2.400;2023-05-07T03:25:11;17.90;99.90
69418;DHT22;56610;48.872;2.400;2023-05-07T03:27:37;17.80;99.90
69418;DHT22;56610;48.872;2.400;2023-05-07T03:30:03;17.70;99.90
69418;DHT22;56610;48.872;2.400;2023-05-07T03:32:29;17.70;99.90
69418;DHT22;56610;48.872;2.400;2023-05-07T03:34:55;17.70;99.90
69418;DHT22;56610;48.872;2.400;2023-05-07T03:37:21;17.80;99.90
69418;DHT22;56610;48.872;2.400;2023-05-07T03:39:47;17.80;99.90
69418;DHT22;56610;48.872;2.400;2023-05-07T03:42:12;17.80;99.90
69418;DHT22;56610;48.872;2.400;2023-05-07T03:44:38;17.80;99.90
69418;DHT22;56610;48.872;2.400;2023-05-07T03:47:04;17.70;99.90
69418;DHT22;56610;48.872;2.400;2023-05-07T03:49:29;17.70;99.90
69418;DHT22;56610;48.872;2.400;2023-05-07T03:51:55;17.70;99.90
69418;DHT22;56610;48.872;2.400;2023-05-07T03:54:21;17.70;99.90
69418;DHT22;56610;48.872;2.400;2023-05-07T03:56:46;17.70;99.90
69418;DHT22;56610;48.872;2.400;2023-05-07T03:59:12;17.80;99.90
69418;DHT22;56610;48.872;2.400;2023-05-07T04:01:38;17.80;99.90
69418;DHT22;56610;48.872;2.400;2023-05-07T04:04:04;17.80;99.90
69418;DHT22;56610;48.872;2.400;2023-05-07T04:06:30;17.80;99.90
69418;DHT22;56610;48.872;2.400;2023-05-07T04:08:56;17.80;99.90
69418;DHT22;56610;48.872;2.400;2023-05-07T04:11:21;17.90;99.90
69418;DHT22;56610;48.872;2.400;2023-05-07T04:13:47;17.90;99.90
69418;DHT22;56610;48.872;2.400;2023-05-07T04:16:13;17.90;99.90
69418;DHT22;56610;48.872;2.400;2023-05-07T04:18:38;17.80;99.90
69418;DHT22;56610;48.872;2.400;2023-05-07T04:21:04;17.90;99.90
69418;DHT22;56610;48.872;2.400;2023-05-07T04:23:30;17.80;99.90
69418;DHT22;56610;48.872;2.400;2023-05-07T04:25:56;17.70;99.90
69418;DHT22;56610;48.872;2.400;2023-05-07T04:28:22;17.70;99.90
69418;DHT22;56610;48.872;2.400;2023-05-07T04:30:48;17.80;99.90
69418;DHT22;56610;48.872;2.400;2023-05-07T04:33:14;17.80;99.90
69418;DHT22;56610;48.872;2.400;2023-05-07T04:35:42;17.80;99.90
69418;DHT22;56610;48.872;2.400;2023-05-07T04:38:07;17.90;99.90
69418;DHT22;56610;48.872;2.400;2023-05-07T04:40:35;17.90;99.90
69418;DHT22;56610;48.872;2.400;2023-05-07T04:43:00;17.90;99.90
69418;DHT22;56610;48.872;2.400;2023-05-07T04:45:26;17.90;99.90
69418;DHT22;56610;48.872;2.400;2023-05-07T04:47:52;18.00;99.90
69418;DHT22;56610;48.872;2.400;2023-05-07T04:50:17;17.90;99.90
69418;DHT22;56610;48.872;2.400;2023-05-07T04:52:44;17.80;99.90
69418;DHT22;56610;48.872;2.400;2023-05-07T04:55:10;17.80;99.90
69418;DHT22;56610;48.872;2.400;2023-05-07T04:57:36;17.70;99.90
69418;DHT22;56610;48.872;2.400;2023-05-07T05:00:03;17.80;99.90
69418;DHT22;56610;48.872;2.400;2023-05-07T05:02:29;17.80;99.90
69418;DHT22;56610;48.872;2.400;2023-05-07T05:04:55;17.80;99.90
69418;DHT22;56610;48.872;2.400;2023-05-07T05:07:20;17.80;99.90
69418;DHT22;56610;48.872;2.400;2023-05-07T05:09:46;17.90;99.90
69418;DHT22;56610;48.872;2.400;2023-05-07T05:12:11;17.90;99.90
69418;DHT22;56610;48.872;2.400;2023-05-07T05:14:37;18.00;99.90
69418;DHT22;56610;48.872;2.400;2023-05-07T05:17:03;18.00;99.90
69418;DHT22;56610;48.872;2.400;2023-05-07T05:19:28;18.00;99.90
69418;DHT22;56610;48.872;2.400;2023-05-07T05:21:54;17.90;99.90
69418;DHT22;56610;48.872;2.400;2023-05-07T05:24:19;17.80;99.90
69418;DHT22;56610;48.872;2.400;2023-05-07T05:26:45;17.80;99.90
69418;DHT22;56610;48.872;2.400;2023-05-07T05:29:11;17.80;99.90
69418;DHT22;56610;48.872;2.400;2023-05-07T05:31:36;17.90;99.90
69418;DHT22;56610;48.872;2.400;2023-05-07T05:34:02;17.90;99.90
69418;DHT22;56610;48.872;2.400;2023-05-07T05:36:29;17.80;99.90
69418;DHT22;56610;48.872;2.400;2023-05-07T05:38:56;17.90;99.90
69418;DHT22;56610;48.872;2.400;2023-05-07T05:41:21;17.90;99.90
69418;DHT22;56610;48.872;2.400;2023-05-07T05:43:49;17.90;99.90
69418;DHT22;56610;48.872;2.400;2023-05-07T05:46:15;17.90;99.90
69418;DHT22;56610;48.872;2.400;2023-05-07T05:48:40;17.80;99.90
69418;DHT22;56610;48.872;2.400;2023-05-07T05:51:06;17.70;99.90
69418;DHT22;56610;48.872;2.400;2023-05-07T05:53:31;17.80;99.90
69418;DHT22;56610;48.872;2.400;2023-05-07T05:55:57;17.80;99.90
69418;DHT22;56610;48.872;2.400;2023-05-07T05:58:22;17.70;99.90
69418;DHT22;56610;48.872;2.400;2023-05-07T06:00:48;17.60;99.90
69418;DHT22;56610;48.872;2.400;2023-05-07T06:03:17;17.70;99.90
69418;DHT22;56610;48.872;2.400;2023-05-07T06:05:42;17.80;99.90
69418;DHT22;56610;48.872;2.400;2023-05-07T06:08:08;17.90;99.90
69418;DHT22;56610;48.872;2.400;2023-05-07T06:10:33;17.90;99.90
69418;DHT22;56610;48.872;2.400;2023-05-07T06:13:00;17.90;99.90
69418;DHT22;56610;48.872;2.400;2023-05-07T06:15:26;18.00;99.90
69418;DHT22;56610;48.872;2.400;2023-05-07T06:17:51;18.00;99.90
69418;DHT22;56610;48.872;2.400;2023-05-07T06:20:17;18.00;99.90
69418;DHT22;56610;48.872;2.400;2023-05-07T06:22:43;18.00;99.90
69418;DHT22;56610;48.872;2.400;2023-05-07T06:25:08;17.90;99.90
69418;DHT22;56610;48.872;2.400;2023-05-07T06:27:34;18.00;99.90
69418;DHT22;56610;48.872;2.400;2023-05-07T06:30:00;18.00;99.90
69418;DHT22;56610;48.872;2.400;2023-05-07T06:32:25;18.00;99.90
69418;DHT22;56610;48.872;2.400;2023-05-07T06:34:51;18.00;99.90
69418;DHT22;56610;48.872;2.400;2023-05-07T06:37:17;18.00;99.90
69418;DHT22;56610;48.872;2.400;2023-05-07T06:39:42;17.90;99.90
69418;DHT22;56610;48.872;2.400;2023-05-07T06:42:08;17.90;99.90
69418;DHT22;56610;48.872;2.400;2023-05-07T06:44:33;17.80;99.90
69418;DHT22;56610;48.872;2.400;2023-05-07T06:46:59;17.90;99.90
69418;DHT22;56610;48.872;2.400;2023-05-07T06:49:24;18.00;99.90
69418;DHT22;56610;48.872;2.400;2023-05-07T06:51:50;18.00;99.90
69418;DHT22;56610;48.872;2.400;2023-05-07T06:54:15;18.00;99.90
69418;DHT22;56610;48.872;2.400;2023-05-07T06:56:41;18.00;99.90
69418;DHT22;56610;48.872;2.400;2023-05-07T06:59:07;18.10;99.90
69418;DHT22;56610;48.872;2.400;2023-05-07T07:01:32;18.30;99.90
69418;DHT22;56610;48.872;2.400;2023-05-07T07:03:58;18.30;99.90
69418;DHT22;56610;48.872;2.400;2023-05-07T07:06:24;18.40;99.90
69418;DHT22;56610;48.872;2.400;2023-05-07T07:08:49;18.50;99.90
69418;DHT22;56610;48.872;2.400;2023-05-07T07:11:15;18.50;99.90
69418;DHT22;56610;48.872;2.400;2023-05-07T07:13:41;18.40;99.90
69418;DHT22;56610;48.872;2.400;2023-05-07T07:16:08;18.30;99.90
69418;DHT22;56610;48.872;2.400;2023-05-07T07:18:33;18.40;99.90
69418;DHT22;56610;48.872;2.400;2023-05-07T07:20:59;18.30;99.90
69418;DHT22;56610;48.872;2.400;2023-05-07T07:23:25;18.40;99.90
69418;DHT22;56610;48.872;2.400;2023-05-07T07:25:51;18.40;99.90
69418;DHT22;56610;48.872;2.400;2023-05-07T07:28:17;18.40;99.90
69418;DHT22;56610;48.872;2.400;2023-05-07T07:30:42;18.40;99.90
69418;DHT22;56610;48.872;2.400;2023-05-07T07:33:08;18.30;99.90
69418;DHT22;56610;48.872;2.400;2023-05-07T07:35:34;18.30;99.90
69418;DHT22;56610;48.872;2.400;2023-05-07T07:38:00;18.40;99.90
69418;DHT22;56610;48.872;2.400;2023-05-07T07:40:27;18.40;99.90
69418;DHT22;56610;48.872;2.400;2023-05-07T07:42:53;18.40;99.90
69418;DHT22;56610;48.872;2.400;2023-05-07T07:45:19;18.40;99.90
69418;DHT22;56610;48.872;2.400;2023-05-07T07:47:44;18.30;99.90
69418;DHT22;56610;48.872;2.400;2023-05-07T07:50:10;18.30;99.90
69418;DHT22;56610;48.872;2.400;2023-05-07T07:52:36;18.30;99.90
69418;DHT22;56610;48.872;2.400;2023-05-07T07:55:02;18.20;99.90
69418;DHT22;56610;48.872;2.400;2023-05-07T07:57:28;18.30;99.90
69418;DHT22;56610;48.872;2.400;2023-05-07T07:59:54;18.30;99.90
69418;DHT22;56610;48.872;2.400;2023-05-07T08:02:19;18.40;99.90
69418;DHT22;56610;48.872;2.400;2023-05-07T08:04:45;18.40;99.90
69418;DHT22;56610;48.872;2.400;2023-05-07T08:07:10;18.40;99.90
69418;DHT22;56610;48.872;2.400;2023-05-07T08:09:40;18.40;99.90
69418;DHT22;56610;48.872;2.400;2023-05-07T08:12:06;18.50;99.90
69418;DHT22;56610;48.872;2.400;2023-05-07T08:14:33;18.50;99.90
69418;DHT22;56610;48.872;2.400;2023-05-07T08:16:58;18.50;99.90
69418;DHT22;56610;48.872;2.400;2023-05-07T08:19:24;18.50;99.90
69418;DHT22;56610;48.872;2.400;2023-05-07T08:21:50;18.50;99.90
69418;DHT22;56610;48.872;2.400;2023-05-07T08:24:16;18.50;99.90
69418;DHT22;56610;48.872;2.400;2023-05-07T08:26:42;18.50;99.90
69418;DHT22;56610;48.872;2.400;2023-05-07T08:29:08;18.50;99.90
69418;DHT22;56610;48.872;2.400;2023-05-07T08:31:33;18.70;99.90
69418;DHT22;56610;48.872;2.400;2023-05-07T08:33:59;18.60;99.90
69418;DHT22;56610;48.872;2.400;2023-05-07T08:36:25;18.70;99.90
69418;DHT22;56610;48.872;2.400;2023-05-07T08:38:51;18.60;99.90
69418;DHT22;56610;48.872;2.400;2023-05-07T08:41:17;18.60;99.90
69418;DHT22;56610;48.872;2.400;2023-05-07T08:43:45;18.70;99.90
69418;DHT22;56610;48.872;2.400;2023-05-07T08:46:17;18.70;99.90
69418;DHT22;56610;48.872;2.400;2023-05-07T08:48:44;18.90;99.90
69418;DHT22;56610;48.872;2.400;2023-05-07T08:51:13;18.90;99.90
69418;DHT22;56610;48.872;2.400;2023-05-07T08:53:41;18.90;99.90
69418;DHT22;56610;48.872;2.400;2023-05-07T08:56:08;19.00;99.90
69418;DHT22;56610;48.872;2.400;2023-05-07T08:58:34;19.10;99.90
69418;DHT22;56610;48.872;2.400;2023-05-07T09:01:03;19.00;99.90
69418;DHT22;56610;48.872;2.400;2023-05-07T09:03:32;19.10;99.90
69418;DHT22;56610;48.872;2.400;2023-05-07T09:05:57;19.10;99.90
69418;DHT22;56610;48.872;2.400;2023-05-07T09:08:27;19.30;99.90
69418;DHT22;56610;48.872;2.400;2023-05-07T09:10:53;19.30;99.90
69418;DHT22;56610;48.872;2.400;2023-05-07T09:13:19;19.40;99.90
69418;DHT22;56610;48.872;2.400;2023-05-07T09:15:46;19.10;99.90
69418;DHT22;56610;48.872;2.400;2023-05-07T09:18:12;19.10;99.90
69418;DHT22;56610;48.872;2.400;2023-05-07T09:20:40;19.10;99.90
69418;DHT22;56610;48.872;2.400;2023-05-07T09:23:06;19.20;99.90
69418;DHT22;56610;48.872;2.400;2023-05-07T09:25:34;19.20;99.90
69418;DHT22;56610;48.872;2.400;2023-05-07T09:28:01;19.30;99.90
69418;DHT22;56610;48.872;2.400;2023-05-07T09:30:30;19.30;99.90
69418;DHT22;56610;48.872;2.400;2023-05-07T09:33:00;19.50;99.90
69418;DHT22;56610;48.872;2.400;2023-05-07T09:35:26;19.70;99.90
69418;DHT22;56610;48.872;2.400;2023-05-07T09:37:56;19.70;99.90
69418;DHT22;56610;48.872;2.400;2023-05-07T09:40:24;19.80;99.90
69418;DHT22;56610;48.872;2.400;2023-05-07T09:43:11;19.80;99.90
69418;DHT22;56610;48.872;2.400;2023-05-07T09:45:37;19.90;99.90
69418;DHT22;56610;48.872;2.400;2023-05-07T09:48:05;19.90;99.90
69418;DHT22;56610;48.872;2.400;2023-05-07T09:50:48;20.00;99.90
69418;DHT22;56610;48.872;2.400;2023-05-07T09:53:14;19.90;99.90
69418;DHT22;56610;48.872;2.400;2023-05-07T09:55:41;19.80;99.90
69418;DHT22;56610;48.872;2.400;2023-05-07T09:58:07;19.70;99.90
69418;DHT22;56610;48.872;2.400;2023-05-07T10:00:35;19.60;99.90
69418;DHT22;56610;48.872;2.400;2023-05-07T10:03:01;19.60;99.90
69418;DHT22;56610;48.872;2.400;2023-05-07T10:05:28;19.70;99.90
69418;DHT22;56610;48.872;2.400;2023-05-07T10:07:54;19.80;99.90
69418;DHT22;56610;48.872;2.400;2023-05-07T10:10:22;19.80;99.90
69418;DHT22;56610;48.872;2.400;2023-05-07T10:12:49;20.00;99.90
69418;DHT22;56610;48.872;2.400;2023-05-07T10:15:16;20.10;99.90
69418;DHT22;56610;48.872;2.400;2023-05-07T10:17:44;20.10;99.90
69418;DHT22;56610;48.872;2.400;2023-05-07T10:20:10;20.20;99.90
69418;DHT22;56610;48.872;2.400;2023-05-07T10:22:42;20.10;99.90
69418;DHT22;56610;48.872;2.400;2023-05-07T10:25:29;20.00;99.90
69418;DHT22;56610;48.872;2.400;2023-05-07T10:27:58;19.90;99.90
69418;DHT22;56610;48.872;2.400;2023-05-07T10:30:44;19.90;99.90
69418;DHT22;56610;48.872;2.400;2023-05-07T10:33:16;20.00;99.90
69418;DHT22;56610;48.872;2.400;2023-05-07T10:35:44;20.00;99.90
69418;DHT22;56610;48.872;2.400;2023-05-07T10:38:10;20.00;99.90
69418;DHT22;56610;48.872;2.400;2023-05-07T10:40:36;19.90;99.90
69418;DHT22;56610;48.872;2.400;2023-05-07T10:43:04;19.90;99.90
69418;DHT22;56610;48.872;2.400;2023-05-07T10:45:33;20.10;99.90
69418;DHT22;56610;48.872;2.400;2023-05-07T10:48:15;20.20;99.90
69418;DHT22;56610;48.872;2.400;2023-05-07T10:50:43;20.20;99.90
69418;DHT22;56610;48.872;2.400;2023-05-07T10:55:44;20.30;99.90
69418;DHT22;56610;48.872;2.400;2023-05-07T10:58:22;20.20;99.90
69418;DHT22;56610;48.872;2.400;2023-05-07T11:00:49;20.20;99.90
69418;DHT22;56610;48.872;2.400;2023-05-07T11:03:14;20.10;99.90
69418;DHT22;56610;48.872;2.400;2023-05-07T11:05:41;20.10;99.90
69418;DHT22;56610;48.872;2.400;2023-05-07T11:08:08;20.10;99.90
69418;DHT22;56610;48.872;2.400;2023-05-07T11:13:41;20.10;99.90
69418;DHT22;56610;48.872;2.400;2023-05-07T11:16:05;20.30;99.90
69418;DHT22;56610;48.872;2.400;2023-05-07T11:18:49;20.40;99.90
69418;DHT22;56610;48.872;2.400;2023-05-07T11:21:38;20.60;99.90
69418;DHT22;56610;48.872;2.400;2023-05-07T11:24:05;20.90;99.90
69418;DHT22;56610;48.872;2.400;2023-05-07T11:26:44;21.10;99.90
69418;DHT22;56610;48.872;2.400;2023-05-07T11:29:12;21.30;99.90
69418;DHT22;56610;48.872;2.400;2023-05-07T11:31:38;21.40;99.90
69418;DHT22;56610;48.872;2.400;2023-05-07T11:34:03;21.40;99.90
69418;DHT22;56610;48.872;2.400;2023-05-07T11:36:31;21.50;99.90
69418;DHT22;56610;48.872;2.400;2023-05-07T11:38:57;21.40;99.90
69418;DHT22;56610;48.872;2.400;2023-05-07T11:41:22;21.30;99.90
69418;DHT22;56610;48.872;2.400;2023-05-07T11:43:59;21.30;99.90
69418;DHT22;56610;48.872;2.400;2023-05-07T11:46:25;21.20;99.90
69418;DHT22;56610;48.872;2.400;2023-05-07T11:48:51;21.30;99.90
69418;DHT22;56610;48.872;2.400;2023-05-07T11:51:24;21.50;99.90
69418;DHT22;56610;48.872;2.400;2023-05-07T11:53:51;21.40;99.90
69418;DHT22;56610;48.872;2.400;2023-05-07T11:56:18;21.10;99.90
69418;DHT22;56610;48.872;2.400;2023-05-07T11:58:45;20.80;99.90
69418;DHT22;56610;48.872;2.400;2023-05-07T12:01:12;20.70;99.90
69418;DHT22;56610;48.872;2.400;2023-05-07T12:03:43;20.60;99.90
69418;DHT22;56610;48.872;2.400;2023-05-07T12:06:10;20.70;99.90
69418;DHT22;56610;48.872;2.400;2023-05-07T12:08:38;20.70;99.90
69418;DHT22;56610;48.872;2.400;2023-05-07T12:11:07;20.80;99.90
69418;DHT22;56610;48.872;2.400;2023-05-07T12:13:34;20.80;99.90
69418;DHT22;56610;48.872;2.400;2023-05-07T12:15:59;20.80;99.90
69418;DHT22;56610;48.872;2.400;2023-05-07T12:18:26;20.80;99.90
69418;DHT22;56610;48.872;2.400;2023-05-07T12:20:53;20.90;99.90
69418;DHT22;56610;48.872;2.400;2023-05-07T12:23:18;20.90;99.90
69418;DHT22;56610;48.872;2.400;2023-05-07T12:25:44;20.90;99.90
69418;DHT22;56610;48.872;2.400;2023-05-07T12:28:16;21.10;99.90
69418;DHT22;56610;48.872;2.400;2023-05-07T12:30:43;21.20;99.90
69418;DHT22;56610;48.872;2.400;2023-05-07T12:33:10;21.30;99.90
69418;DHT22;56610;48.872;2.400;2023-05-07T12:35:38;21.40;99.90
69418;DHT22;56610;48.872;2.400;2023-05-07T12:38:14;21.20;99.90
69418;DHT22;56610;48.872;2.400;2023-05-07T12:40:44;21.20;99.90
69418;DHT22;56610;48.872;2.400;2023-05-07T12:43:17;21.10;99.90
69418;DHT22;56610;48.872;2.400;2023-05-07T12:45:43;20.90;99.90
69418;DHT22;56610;48.872;2.400;2023-05-07T12:48:10;20.80;99.90
69418;DHT22;56610;48.872;2.400;2023-05-07T12:50:36;20.60;99.90
69418;DHT22;56610;48.872;2.400;2023-05-07T12:53:04;20.50;99.90
69418;DHT22;56610;48.872;2.400;2023-05-07T12:55:47;20.50;99.90
69418;DHT22;56610;48.872;2.400;2023-05-07T12:58:17;20.40;99.90
69418;DHT22;56610;48.872;2.400;2023-05-07T13:00:44;20.30;99.90
69418;DHT22;56610;48.872;2.400;2023-05-07T13:03:10;20.10;99.90
69418;DHT22;56610;48.872;2.400;2023-05-07T13:05:36;19.90;99.90
69418;DHT22;56610;48.872;2.400;2023-05-07T13:08:01;19.80;99.90
69418;DHT22;56610;48.872;2.400;2023-05-07T13:10:27;19.80;99.90
69418;DHT22;56610;48.872;2.400;2023-05-07T13:12:53;19.70;99.90
69418;DHT22;56610;48.872;2.400;2023-05-07T13:15:19;19.70;99.90
69418;DHT22;56610;48.872;2.400;2023-05-07T13:17:45;19.80;99.90
69418;DHT22;56610;48.872;2.400;2023-05-07T13:20:11;19.80;99.90
69418;DHT22;56610;48.872;2.400;2023-05-07T13:22:40;19.90;99.90
69418;DHT22;56610;48.872;2.400;2023-05-07T13:25:06;19.90;99.90
69418;DHT22;56610;48.872;2.400;2023-05-07T13:27:32;20.10;99.90
69418;DHT22;56610;48.872;2.400;2023-05-07T13:30:01;20.20;99.90
69418;DHT22;56610;48.872;2.400;2023-05-07T13:32:26;20.30;99.90
69418;DHT22;56610;48.872;2.400;2023-05-07T13:34:52;20.40;99.90
69418;DHT22;56610;48.872;2.400;2023-05-07T13:37:17;20.40;99.90
69418;DHT22;56610;48.872;2.400;2023-05-07T13:39:43;20.40;99.90
69418;DHT22;56610;48.872;2.400;2023-05-07T13:42:09;20.50;99.90
69418;DHT22;56610;48.872;2.400;2023-05-07T13:44:35;20.40;99.90
69418;DHT22;56610;48.872;2.400;2023-05-07T13:47:01;20.30;99.90
69418;DHT22;56610;48.872;2.400;2023-05-07T13:49:27;20.30;99.90
69418;DHT22;56610;48.872;2.400;2023-05-07T13:51:52;20.20;99.90
69418;DHT22;56610;48.872;2.400;2023-05-07T13:54:18;20.10;99.90
69418;DHT22;56610;48.872;2.400;2023-05-07T13:56:43;20.10;99.90
69418;DHT22;56610;48.872;2.400;2023-05-07T13:59:09;20.00;99.90
69418;DHT22;56610;48.872;2.400;2023-05-07T14:01:35;19.80;99.90
69418;DHT22;56610;48.872;2.400;2023-05-07T14:04:00;19.70;99.90
69418;DHT22;56610;48.872;2.400;2023-05-07T14:06:26;19.60;99.90
69418;DHT22;56610;48.872;2.400;2023-05-07T14:08:51;19.50;99.90
69418;DHT22;56610;48.872;2.400;2023-05-07T14:11:17;19.60;99.90
69418;DHT22;56610;48.872;2.400;2023-05-07T14:13:43;19.50;99.90
69418;DHT22;56610;48.872;2.400;2023-05-07T14:16:08;19.40;99.90
69418;DHT22;56610;48.872;2.400;2023-05-07T14:18:34;19.40;99.90
69418;DHT22;56610;48.872;2.400;2023-05-07T14:21:02;19.30;99.90
69418;DHT22;56610;48.872;2.400;2023-05-07T14:23:27;19.30;99.90
69418;DHT22;56610;48.872;2.400;2023-05-07T14:25:53;19.20;99.90
69418;DHT22;56610;48.872;2.400;2023-05-07T14:28:19;19.10;99.90
69418;DHT22;56610;48.872;2.400;2023-05-07T14:30:45;19.10;99.90
69418;DHT22;56610;48.872;2.400;2023-05-07T14:33:11;19.20;99.90
69418;DHT22;56610;48.872;2.400;2023-05-07T14:35:36;19.10;99.90
69418;DHT22;56610;48.872;2.400;2023-05-07T14:38:02;19.20;99.90
69418;DHT22;56610;48.872;2.400;2023-05-07T14:40:27;19.20;99.90
69418;DHT22;56610;48.872;2.400;2023-05-07T14:42:53;19.20;99.90
69418;DHT22;56610;48.872;2.400;2023-05-07T14:45:20;19.40;99.90
69418;DHT22;56610;48.872;2.400;2023-05-07T14:47:45;19.70;99.90
69418;DHT22;56610;48.872;2.400;2023-05-07T14:50:11;20.00;99.90
69418;DHT22;56610;48.872;2.400;2023-05-07T14:52:37;20.40;99.90
69418;DHT22;56610;48.872;2.400;2023-05-07T14:55:02;20.60;99.90
69418;DHT22;56610;48.872;2.400;2023-05-07T14:57:28;21.00;99.90
69418;DHT22;56610;48.872;2.400;2023-05-07T14:59:54;21.20;99.90
69418;DHT22;56610;48.872;2.400;2023-05-07T15:02:19;21.40;99.90
69418;DHT22;56610;48.872;2.400;2023-05-07T15:04:45;21.50;99.90
69418;DHT22;56610;48.872;2.400;2023-05-07T15:07:15;21.40;99.90
69418;DHT22;56610;48.872;2.400;2023-05-07T15:09:44;21.40;99.90
69418;DHT22;56610;48.872;2.400;2023-05-07T15:12:10;21.60;99.90
69418;DHT22;56610;48.872;2.400;2023-05-07T15:14:37;21.60;99.90
69418;DHT22;56610;48.872;2.400;2023-05-07T15:17:03;21.40;99.90
69418;DHT22;56610;48.872;2.400;2023-05-07T15:19:28;21.60;99.90
69418;DHT22;56610;48.872;2.400;2023-05-07T15:21:59;21.00;99.90
69418;DHT22;56610;48.872;2.400;2023-05-07T15:24:30;20.80;99.90
69418;DHT22;56610;48.872;2.400;2023-05-07T15:26:56;20.50;99.90
69418;DHT22;56610;48.872;2.400;2023-05-07T15:29:23;20.30;99.90
69418;DHT22;56610;48.872;2.400;2023-05-07T15:31:49;19.90;99.90
69418;DHT22;56610;48.872;2.400;2023-05-07T15:34:14;19.80;99.90